Time;durP1;ratioP1;P1;durP2;ratioP2;P2;SDS_P1;SDS_P2;PMS_P1;PMS_P2;Temp;Humidity;BMP_temperature;BMP_pressure;BME280_temperature;BME280_humidity;BME280_pressure;Samples;Min_cycle;Max_cycle;Signal;HPM_P1;HPM_P2
2022/10/04 00:02:18;;;;;;;10.30;2.63;;;38.00;44.40;;;;;;5024726;28;20517;-67
2022/10/04 00:04:57;;;;;;;9.02;2.05;;;38.00;44.30;;;;;;5018773;28;20029;-65
2022/10/04 00:07:28;;;;;;;11.95;2.30;;;37.90;44.50;;;;;;5019545;28;20036;-70
2022/10/04 00:10:14;;;;;;;9.38;2.30;;;37.70;43.90;;;;;;5022902;28;20026;-65
2022/10/04 00:12:57;;;;;;;11.07;2.13;;;37.60;44.90;;;;;;5019143;28;20540;-66
2022/10/04 00:15:36;;;;;;;14.48;2.50;;;37.40;44.40;;;;;;5022689;28;20041;-66
2022/10/04 00:18:25;;;;;;;15.05;2.70;;;37.30;44.50;;;;;;5018661;28;20076;-68
2022/10/04 00:20:53;;;;;;;15.32;2.30;;;37.20;44.60;;;;;;5019996;28;20030;-66
2022/10/04 00:23:23;;;;;;;11.55;2.55;;;37.20;46.00;;;;;;5023092;28;20537;-67
2022/10/04 00:25:50;;;;;;;19.85;3.42;;;37.10;45.80;;;;;;5025977;28;20022;-72
2022/10/04 00:28:19;;;;;;;11.25;2.55;;;37.10;47.00;;;;;;5021795;28;20543;-67
2022/10/04 00:31:08;;;;;;;13.93;3.33;;;37.00;46.00;;;;;;5019731;28;20036;-65
2022/10/04 00:33:42;;;;;;;11.93;2.50;;;37.00;45.80;;;;;;5014138;28;20364;-67
2022/10/04 00:36:24;;;;;;;12.90;2.38;;;36.90;45.50;;;;;;5017981;28;20492;-69
2022/10/04 00:39:05;;;;;;;16.20;2.88;;;36.90;45.70;;;;;;5020278;28;20022;-64
2022/10/04 00:42:01;;;;;;;19.35;2.58;;;36.90;45.90;;;;;;5021336;28;20075;-65
2022/10/04 00:44:46;;;;;;;15.38;2.45;;;36.70;45.40;;;;;;5016968;28;20037;-66
2022/10/04 00:47:30;;;;;;;11.30;2.08;;;36.70;45.70;;;;;;5023416;28;20421;-68
2022/10/04 00:50:02;;;;;;;18.30;2.42;;;36.70;45.90;;;;;;5026937;28;20494;-67
2022/10/04 00:52:33;;;;;;;17.38;2.40;;;36.60;45.40;;;;;;5019821;28;20115;-66
2022/10/04 00:55:05;;;;;;;11.73;2.60;;;36.60;45.60;;;;;;5021794;28;20025;-67
2022/10/04 00:57:35;;;;;;;10.98;2.25;;;36.50;46.30;;;;;;5022540;28;20029;-66
2022/10/04 01:00:07;;;;;;;10.48;2.20;;;36.40;46.20;;;;;;5017157;28;20022;-67
2022/10/04 01:02:49;;;;;;;11.57;2.22;;;36.30;46.30;;;;;;5022452;28;20021;-67
2022/10/04 01:05:27;;;;;;;13.05;1.83;;;36.20;46.80;;;;;;5017185;28;20022;-67
2022/10/04 01:08:06;;;;;;;12.73;2.88;;;36.10;46.50;;;;;;5019670;28;20048;-69
2022/10/04 01:10:45;;;;;;;16.17;2.70;;;36.10;46.20;;;;;;5016929;28;20030;-69
2022/10/04 01:13:13;;;;;;;17.83;3.55;;;36.00;46.70;;;;;;5020210;28;20030;-69
2022/10/04 01:16:01;;;;;;;10.93;2.50;;;36.00;46.70;;;;;;5024926;28;20045;-68
2022/10/04 01:18:29;;;;;;;15.40;2.22;;;35.90;47.20;;;;;;5021618;28;20510;-67
2022/10/04 01:21:04;;;;;;;11.77;2.30;;;35.80;46.70;;;;;;5019458;28;20043;-65
2022/10/04 01:23:37;;;;;;;18.38;2.55;;;35.80;47.50;;;;;;5018024;28;20028;-66
2022/10/04 01:26:29;;;;;;;12.68;3.20;;;35.70;47.40;;;;;;5020331;28;20030;-68
2022/10/04 01:28:59;;;;;;;76.25;7.05;;;35.60;47.20;;;;;;5022494;28;20041;-67
2022/10/04 01:31:27;;;;;;;33.00;4.70;;;35.50;47.00;;;;;;5019843;28;20040;-65
2022/10/04 01:33:57;;;;;;;20.30;4.00;;;35.50;48.20;;;;;;5017889;28;20025;-67
2022/10/04 01:36:23;;;;;;;23.13;2.83;;;35.50;49.00;;;;;;5018752;28;20022;-66
2022/10/04 01:38:50;;;;;;;9.65;2.10;;;35.40;48.90;;;;;;5022180;28;20026;-64
2022/10/04 01:41:21;;;;;;;11.60;2.17;;;35.30;48.80;;;;;;5023224;28;20073;-65
2022/10/04 01:43:52;;;;;;;9.00;2.05;;;35.30;49.30;;;;;;5021700;28;20017;-64
2022/10/04 01:46:30;;;;;;;9.40;2.08;;;35.20;49.00;;;;;;5020777;28;20029;-65
2022/10/04 01:48:59;;;;;;;14.00;2.47;;;35.10;49.50;;;;;;5023652;28;20037;-66
2022/10/04 01:51:37;;;;;;;17.50;2.67;;;35.00;49.50;;;;;;5024801;28;20033;-66
2022/10/04 01:54:12;;;;;;;11.98;2.92;;;35.00;49.80;;;;;;5019821;28;20026;-69
2022/10/04 01:56:58;;;;;;;13.23;2.65;;;34.90;49.50;;;;;;5020894;28;20087;-65
2022/10/04 01:59:48;;;;;;;9.52;2.47;;;34.90;49.90;;;;;;5021427;28;20026;-65
2022/10/04 02:02:20;;;;;;;12.18;3.00;;;34.80;49.20;;;;;;5020899;28;20375;-67
2022/10/04 02:04:52;;;;;;;11.18;3.97;;;34.80;49.50;;;;;;5021830;28;20118;-63
2022/10/04 02:07:20;;;;;;;14.63;3.30;;;34.70;49.90;;;;;;5019792;28;20025;-65
2022/10/04 02:09:53;;;;;;;15.30;3.35;;;34.70;50.20;;;;;;5026904;28;20064;-66
2022/10/04 02:12:19;;;;;;;22.40;3.63;;;34.60;49.30;;;;;;5020312;28;20124;-66
2022/10/04 02:14:52;;;;;;;19.92;3.25;;;34.50;49.50;;;;;;5020466;28;20033;-66
2022/10/04 02:17:28;;;;;;;18.33;3.83;;;34.50;49.80;;;;;;5023168;28;20042;-67
2022/10/04 02:19:55;;;;;;;;;;;34.40;49.80;;;;;;5020194;28;20022;-67
2022/10/04 02:22:24;;;;;;;17.92;3.33;;;34.40;50.00;;;;;;5025347;28;19920;-66
2022/10/04 02:24:55;;;;;;;12.23;3.15;;;34.40;50.70;;;;;;5021233;28;20049;-63
2022/10/04 02:27:30;;;;;;;24.48;3.60;;;34.30;49.70;;;;;;5024452;28;20032;-66
2022/10/04 02:30:08;;;;;;;23.60;4.25;;;34.20;50.20;;;;;;5023252;28;20056;-66
2022/10/04 02:35:21;;;;;;;24.20;4.30;;;34.20;50.00;;;;;;5025073;28;20044;-66
2022/10/04 02:38:00;;;;;;;22.85;9.00;;;34.10;50.30;;;;;;5022030;28;20476;-66
2022/10/04 02:40:33;;;;;;;25.95;6.22;;;34.10;49.70;;;;;;5022547;28;20037;-64
2022/10/04 02:43:16;;;;;;;27.40;6.53;;;34.10;50.20;;;;;;5026775;28;20042;-64
2022/10/04 02:45:52;;;;;;;17.75;5.03;;;34.10;50.60;;;;;;5022996;28;20028;-63
2022/10/04 02:48:36;;;;;;;;;;;34.00;51.20;;;;;;5027939;28;20026;-63
2022/10/04 02:51:35;;;;;;;24.30;6.35;;;33.90;50.60;;;;;;5028501;28;19909;-63
2022/10/04 02:54:13;;;;;;;36.83;7.82;;;33.90;51.20;;;;;;5015678;28;20069;-66
2022/10/04 02:56:41;;;;;;;24.48;7.53;;;33.80;51.40;;;;;;5021793;28;20021;-64
2022/10/04 02:59:15;;;;;;;34.00;8.02;;;33.80;52.40;;;;;;5025325;28;20018;-65
2022/10/04 03:01:59;;;;;;;24.58;7.68;;;33.70;52.10;;;;;;5023024;28;20026;-65
2022/10/04 03:04:29;;;;;;;23.45;7.68;;;33.70;52.10;;;;;;5022556;28;20022;-63
2022/10/04 03:06:59;;;;;;;29.00;7.30;;;33.60;52.20;;;;;;5025150;28;20044;-67
2022/10/04 03:09:26;;;;;;;32.58;8.32;;;33.60;53.30;;;;;;5022847;28;20060;-66
2022/10/04 03:11:53;;;;;;;31.00;7.15;;;33.50;53.70;;;;;;5022114;28;20033;-66
2022/10/04 03:14:23;;;;;;;32.15;7.30;;;33.50;53.70;;;;;;5025983;28;20033;-65
2022/10/04 03:16:53;;;;;;;43.28;7.57;;;33.40;52.80;;;;;;5019336;28;20048;-66
2022/10/04 03:19:22;;;;;;;46.83;6.82;;;33.40;52.80;;;;;;5026133;28;20397;-67
2022/10/04 03:21:52;;;;;;;57.75;6.85;;;33.40;52.40;;;;;;5024173;28;20022;-66
2022/10/04 03:24:27;;;;;;;51.42;7.43;;;33.30;52.50;;;;;;5024916;28;20034;-66
2022/10/04 03:26:56;;;;;;;47.25;8.05;;;33.30;52.70;;;;;;5025105;28;20026;-67
2022/10/04 03:29:26;;;;;;;63.80;8.73;;;33.20;52.70;;;;;;5021834;28;20035;-68
2022/10/04 03:31:57;;;;;;;53.13;9.20;;;33.20;52.50;;;;;;5023855;28;20491;-66
2022/10/04 03:34:27;;;;;;;67.90;9.40;;;33.20;52.70;;;;;;5026760;28;20057;-68
2022/10/04 03:36:57;;;;;;;56.70;9.88;;;33.20;52.60;;;;;;5024193;28;20018;-68
2022/10/04 03:39:32;;;;;;;66.53;8.80;;;33.10;52.50;;;;;;5023602;28;20025;-68
2022/10/04 03:42:06;;;;;;;73.47;9.73;;;33.10;52.40;;;;;;5024670;28;20096;-67
2022/10/04 03:44:33;;;;;;;77.50;8.65;;;33.10;52.30;;;;;;5039717;28;20386;-68
2022/10/04 03:47:00;;;;;;;71.28;8.75;;;33.10;52.30;;;;;;5023362;28;20504;-65
2022/10/04 03:49:34;;;;;;;58.83;8.10;;;33.10;52.10;;;;;;5020711;28;20029;-68
2022/10/04 03:52:02;;;;;;;53.13;8.45;;;33.10;52.20;;;;;;5023943;28;20018;-66
2022/10/04 03:54:30;;;;;;;43.05;8.27;;;33.10;51.90;;;;;;5023365;28;20040;-66
2022/10/04 03:56:59;;;;;;;42.40;8.77;;;33.10;51.90;;;;;;5026383;28;20022;-67
2022/10/04 03:59:28;;;;;;;39.78;9.82;;;33.10;51.90;;;;;;5024769;28;20080;-68
2022/10/04 04:02:16;;;;;;;38.28;9.45;;;33.10;51.90;;;;;;5021785;28;20075;-66
2022/10/04 04:05:04;;;;;;;34.22;10.30;;;33.10;51.80;;;;;;5020914;28;20025;-67
2022/10/04 04:07:31;;;;;;;44.33;11.43;;;33.00;51.90;;;;;;5020166;28;20101;-68
2022/10/04 04:10:04;;;;;;;43.83;11.65;;;33.00;51.60;;;;;;5022970;28;20415;-68
2022/10/04 04:12:42;;;;;;;57.28;12.75;;;32.90;51.70;;;;;;5025642;28;20052;-66
2022/10/04 04:15:12;;;;;;;59.42;13.95;;;32.90;51.70;;;;;;5021193;28;20507;-67
2022/10/04 04:17:47;;;;;;;57.60;13.15;;;32.90;51.80;;;;;;5021935;28;20030;-66
2022/10/04 04:20:32;;;;;;;51.15;13.57;;;32.90;51.80;;;;;;5017621;28;20105;-68
2022/10/04 04:23:10;;;;;;;47.70;14.27;;;32.80;52.30;;;;;;5022685;28;20022;-67
2022/10/04 04:25:39;;;;;;;43.55;13.82;;;32.80;52.70;;;;;;5026073;28;20363;-68
2022/10/04 04:28:31;;;;;;;65.30;14.05;;;32.70;52.60;;;;;;5024394;28;20112;-67
2022/10/04 04:31:26;;;;;;;49.15;14.10;;;32.70;53.20;;;;;;5023796;28;20108;-68
2022/10/04 04:34:00;;;;;;;49.83;13.52;;;32.60;52.50;;;;;;5024675;28;20112;-66
2022/10/04 04:36:47;;;;;;;59.47;13.55;;;32.60;52.00;;;;;;5021201;28;20101;-67
2022/10/04 04:42:30;;;;;;;61.83;14.95;;;32.50;52.00;;;;;;5025761;28;20037;-69
2022/10/04 04:45:15;;;;;;;47.92;14.23;;;32.40;52.10;;;;;;5023803;28;20030;-70
2022/10/04 04:47:45;;;;;;;59.08;13.95;;;32.40;52.20;;;;;;5023860;28;20505;-67
2022/10/04 04:50:20;;;;;;;55.65;14.02;;;32.30;52.20;;;;;;5024461;28;20056;-69
2022/10/04 04:52:51;;;;;;;67.40;15.02;;;32.30;53.10;;;;;;5018173;28;21641;-68
2022/10/04 04:55:21;;;;;;;62.45;14.35;;;32.20;52.60;;;;;;5025098;28;20033;-68
2022/10/04 04:57:54;;;;;;;73.43;15.32;;;32.20;52.70;;;;;;5018922;28;20049;-68
2022/10/04 05:00:27;;;;;;;58.60;14.45;;;32.10;52.80;;;;;;5022417;28;20109;-66
2022/10/04 05:02:56;;;;;;;65.10;14.18;;;32.10;52.70;;;;;;5022661;28;20022;-67
2022/10/04 05:05:25;;;;;;;59.10;13.55;;;32.00;54.40;;;;;;5022993;28;20029;-69
2022/10/04 05:08:15;;;;;;;45.10;14.45;;;31.90;55.80;;;;;;5025244;28;20037;-69
2022/10/04 05:10:54;;;;;;;33.03;12.00;;;31.90;55.40;;;;;;5021543;28;20030;-67
2022/10/04 05:13:24;;;;;;;44.17;12.75;;;31.80;55.70;;;;;;5022938;28;20033;-67
2022/10/04 05:15:56;;;;;;;57.72;14.15;;;31.80;54.00;;;;;;5023624;28;20050;-67
2022/10/04 05:18:27;;;;;;;44.10;12.73;;;31.70;53.70;;;;;;5020423;28;20025;-68
2022/10/04 05:20:55;;;;;;;55.55;14.88;;;31.70;53.60;;;;;;5020139;28;20394;-66
2022/10/04 05:23:21;;;;;;;48.75;12.82;;;31.70;53.60;;;;;;5023614;28;20026;-69
2022/10/04 05:25:49;;;;;;;49.85;13.05;;;31.60;54.30;;;;;;5018856;28;20453;-69
2022/10/04 05:28:19;;;;;;;60.33;12.75;;;31.60;54.90;;;;;;5021033;28;20037;-68
2022/10/04 05:31:10;;;;;;;53.38;12.75;;;31.50;53.80;;;;;;5022721;28;20030;-66
2022/10/04 05:33:48;;;;;;;38.30;11.05;;;31.50;53.90;;;;;;5015220;28;20049;-68
2022/10/04 05:36:40;;;;;;;56.45;11.45;;;31.50;54.30;;;;;;5022377;28;20017;-69
2022/10/04 05:39:12;;;;;;;55.30;11.57;;;31.50;55.00;;;;;;5027194;28;20017;-69
2022/10/04 05:41:54;;;;;;;48.55;10.52;;;31.40;54.40;;;;;;5023993;28;20032;-67
2022/10/04 05:44:27;;;;;;;35.25;9.60;;;31.40;54.30;;;;;;5020725;28;20041;-68
2022/10/04 05:47:00;;;;;;;43.20;9.82;;;31.40;55.60;;;;;;5024534;28;20026;-68
2022/10/04 05:49:45;;;;;;;35.42;9.90;;;31.40;55.90;;;;;;5019543;28;20080;-68
2022/10/04 05:52:34;;;;;;;58.08;9.32;;;31.30;55.90;;;;;;5021620;28;20128;-66
2022/10/04 05:55:36;;;;;;;44.40;9.55;;;31.30;55.40;;;;;;5021273;28;20428;-67
2022/10/04 05:58:18;;;;;;;36.30;9.85;;;31.20;54.60;;;;;;5021589;28;20430;-66
2022/10/04 06:00:50;;;;;;;50.47;10.55;;;31.10;55.30;;;;;;5021428;28;20026;-68
2022/10/04 06:03:51;;;;;;;48.53;10.25;;;31.10;54.70;;;;;;5020255;28;20036;-69
2022/10/04 06:06:48;;;;;;;45.47;9.32;;;31.10;54.30;;;;;;4998369;28;20042;-69
2022/10/04 06:09:36;;;;;;;23.98;9.05;;;31.20;55.00;;;;;;5023263;28;20392;-67
2022/10/04 06:12:12;;;;;;;47.72;8.43;;;31.10;55.50;;;;;;5021797;28;20029;-65
2022/10/04 06:14:47;;;;;;;;;;;31.00;55.80;;;;;;5024419;28;20034;-65
2022/10/04 06:17:48;;;;;;;41.92;9.43;;;30.90;55.60;;;;;;5026977;28;19921;-68
2022/10/04 06:20:34;;;;;;;27.30;7.00;;;30.90;56.20;;;;;;5025471;28;20029;-69
2022/10/04 06:23:05;;;;;;;26.95;6.72;;;30.80;56.20;;;;;;5028795;28;20399;-67
2022/10/04 06:25:51;;;;;;;25.80;6.20;;;30.80;56.40;;;;;;5025272;28;20384;-67
2022/10/04 06:28:23;;;;;;;24.80;6.40;;;30.80;56.60;;;;;;5022767;28;20048;-69
2022/10/04 06:31:02;;;;;;;24.92;5.78;;;30.80;57.00;;;;;;5027832;28;20044;-68
2022/10/04 06:33:42;;;;;;;20.65;5.85;;;30.80;57.20;;;;;;5026281;28;20109;-68
2022/10/04 06:36:33;;;;;;;26.35;5.43;;;30.80;57.40;;;;;;5024907;28;20034;-70
2022/10/04 06:39:23;;;;;;;32.03;6.40;;;30.80;57.50;;;;;;5029899;28;20021;-69
2022/10/04 06:42:16;;;;;;;46.45;5.85;;;30.80;57.40;;;;;;5023305;28;20049;-67
2022/10/04 06:44:48;;;;;;;31.92;5.22;;;30.80;57.40;;;;;;5027763;28;20045;-69
2022/10/04 06:47:37;;;;;;;28.70;5.38;;;30.80;57.40;;;;;;5019244;28;20105;-68
2022/10/04 06:50:46;;;;;;;51.72;6.65;;;30.80;57.60;;;;;;5025732;28;20112;-67
2022/10/04 06:53:39;;;;;;;65.95;6.57;;;30.80;56.70;;;;;;5015889;28;20072;-68
2022/10/04 06:56:42;;;;;;;59.13;6.65;;;30.80;56.20;;;;;;5029054;28;20455;-67
2022/10/04 06:59:12;;;;;;;68.13;8.30;;;30.80;56.00;;;;;;5026998;28;20481;-68
2022/10/04 07:01:49;;;;;;;48.35;6.60;;;30.80;56.00;;;;;;5022023;28;20047;-69
2022/10/04 07:04:40;;;;;;;56.63;6.97;;;30.80;56.00;;;;;;5023913;28;20124;-67
2022/10/04 07:07:34;;;;;;;69.35;7.53;;;30.80;55.90;;;;;;5024633;28;20033;-67
2022/10/04 07:10:18;;;;;;;66.47;7.45;;;30.80;55.70;;;;;;5023014;28;20610;-69
2022/10/04 07:13:04;;;;;;;62.50;6.95;;;30.80;55.60;;;;;;5025482;28;20083;-69
2022/10/04 07:15:46;;;;;;;63.95;7.25;;;30.70;55.50;;;;;;5024986;28;20121;-67
2022/10/04 07:18:26;;;;;;;69.80;7.75;;;30.70;55.40;;;;;;5025138;28;20029;-68
2022/10/04 07:21:07;;;;;;;83.93;8.55;;;30.70;55.50;;;;;;5021280;28;20030;-69
2022/10/04 07:24:02;;;;;;;67.03;7.47;;;30.60;55.60;;;;;;5022136;28;20100;-68
2022/10/04 07:26:48;;;;;;;62.15;7.80;;;30.60;56.00;;;;;;5025615;28;20083;-67
2022/10/04 07:29:24;;;;;;;69.57;7.72;;;30.60;56.10;;;;;;5024526;28;20017;-67
2022/10/04 07:32:05;;;;;;;72.45;7.65;;;30.50;56.20;;;;;;5020643;28;20053;-66
2022/10/04 07:35:03;;;;;;;54.75;6.53;;;30.50;56.50;;;;;;5021626;28;20029;-67
2022/10/04 07:37:45;;;;;;;61.03;7.32;;;30.40;56.70;;;;;;5025815;28;20013;-67
2022/10/04 07:40:57;;;;;;;61.80;7.43;;;30.40;57.00;;;;;;5019443;28;20014;-67
2022/10/04 07:43:28;;;;;;;61.65;7.55;;;30.30;57.10;;;;;;4989960;28;20038;-69
2022/10/04 07:46:33;;;;;;;80.28;7.43;;;30.30;57.30;;;;;;4990738;28;20537;-68
2022/10/04 07:49:00;;;;;;;69.15;8.38;;;30.30;57.20;;;;;;4989929;28;20034;-67
2022/10/04 07:51:40;;;;;;;80.13;7.82;;;30.30;57.60;;;;;;4989855;28;20516;-68
2022/10/04 07:54:54;;;;;;;75.93;7.88;;;30.20;57.60;;;;;;4989566;28;20034;-67
2022/10/04 07:57:38;;;;;;;71.53;8.25;;;30.20;57.70;;;;;;4907807;29;20044;-70
2022/10/04 08:00:16;;;;;;;82.68;7.50;;;30.20;57.90;;;;;;4902666;29;20111;-67
2022/10/04 08:02:56;;;;;;;95.70;9.05;;;30.10;58.20;;;;;;4900455;29;20043;-69
2022/10/04 08:05:33;;;;;;;82.88;7.95;;;30.00;58.30;;;;;;4904660;29;20457;-69
2022/10/04 08:08:17;;;;;;;47.15;5.70;;;30.00;58.30;;;;;;4906939;29;20047;-66
2022/10/04 08:11:09;;;;;;;62.45;7.80;;;30.10;58.60;;;;;;4903053;29;20032;-67
2022/10/04 08:13:41;;;;;;;57.55;6.28;;;30.00;58.50;;;;;;4903352;29;20043;-69
2022/10/04 08:16:31;;;;;;;73.80;6.32;;;30.00;58.90;;;;;;4903716;29;20045;-67
2022/10/04 08:19:18;;;;;;;66.07;6.57;;;30.00;59.10;;;;;;4912392;29;20035;-67
2022/10/04 08:21:52;;;;;;;64.13;6.97;;;30.00;59.30;;;;;;4942932;29;20031;-71
2022/10/04 08:24:42;;;;;;;58.92;5.80;;;30.00;59.60;;;;;;4942666;29;20115;-67
2022/10/04 08:30:55;;;;;;;;;;;29.90;60.30;;;;;;4939780;29;20085;-68
2022/10/04 08:33:46;;;;;;;43.53;4.65;;;29.90;60.50;;;;;;4968279;28;20355;-67
2022/10/04 08:36:40;;;;;;;53.95;5.72;;;29.90;61.20;;;;;;4998956;28;20037;-69
2022/10/04 08:39:24;;;;;;;54.33;4.80;;;29.90;61.70;;;;;;5000809;28;20026;-68
2022/10/04 08:42:15;;;;;;;46.38;4.80;;;29.90;62.10;;;;;;5000143;28;20500;-69
2022/10/04 08:45:19;;;;;;;25.33;3.45;;;29.90;62.50;;;;;;4997759;28;20434;-68
2022/10/04 08:48:04;;;;;;;34.67;4.47;;;29.90;63.20;;;;;;4996037;28;20116;-66
2022/10/04 08:50:37;;;;;;;29.80;3.70;;;29.90;63.50;;;;;;4996490;28;20465;-66
2022/10/04 08:53:14;;;;;;;36.05;3.53;;;29.80;63.80;;;;;;4996669;28;20029;-68
2022/10/04 08:56:03;;;;;;;22.58;4.05;;;29.80;64.20;;;;;;4999197;28;20033;-65
2022/10/04 08:59:14;;;;;;;27.75;3.88;;;29.80;64.60;;;;;;5000237;28;20030;-66
2022/10/04 09:01:47;;;;;;;32.25;3.92;;;29.80;64.60;;;;;;4997157;28;20096;-66
2022/10/04 09:04:43;;;;;;;24.35;4.50;;;29.80;64.80;;;;;;4998428;28;20035;-67
2022/10/04 09:07:38;;;;;;;31.90;4.80;;;29.80;65.10;;;;;;4999525;28;20400;-67
2022/10/04 09:10:12;;;;;;;23.83;4.10;;;29.80;65.00;;;;;;4995795;28;20026;-66
2022/10/04 09:13:01;;;;;;;21.42;4.30;;;29.80;65.30;;;;;;4999537;28;20112;-69
2022/10/04 09:16:05;;;;;;;23.95;4.07;;;29.70;65.50;;;;;;4998804;28;20042;-66
2022/10/04 09:18:53;;;;;;;25.50;3.28;;;29.70;65.70;;;;;;5021433;28;20030;-66
2022/10/04 09:21:26;;;;;;;21.50;3.45;;;29.70;66.10;;;;;;5024326;28;20037;-69
2022/10/04 09:24:48;;;;;;;18.42;3.30;;;29.60;66.80;;;;;;5022098;28;21583;-67
2022/10/04 09:27:44;;;;;;;16.08;3.72;;;29.70;66.30;;;;;;5021489;28;20013;-66
2022/10/04 09:30:23;;;;;;;21.15;3.78;;;29.60;66.80;;;;;;5018633;28;20044;-68
2022/10/04 09:33:27;;;;;;;12.68;3.40;;;29.50;67.30;;;;;;5019826;28;20022;-67
2022/10/04 09:36:12;;;;;;;23.45;3.40;;;29.40;67.60;;;;;;5016714;28;20041;-67
2022/10/04 09:38:41;;;;;;;26.90;3.60;;;29.40;68.20;;;;;;5022582;28;20108;-66
2022/10/04 09:41:25;;;;;;;24.27;3.60;;;29.40;68.10;;;;;;5018379;28;20025;-66
2022/10/04 09:44:15;;;;;;;16.75;3.42;;;29.40;68.00;;;;;;5024423;28;20037;-67
2022/10/04 09:47:19;;;;;;;20.00;3.53;;;29.40;68.50;;;;;;5018727;28;20026;-68
2022/10/04 09:50:25;;;;;;;19.00;3.90;;;29.40;69.00;;;;;;5017499;28;20585;-67
2022/10/04 09:53:19;;;;;;;25.52;3.55;;;29.40;68.80;;;;;;5017043;28;20040;-68
2022/10/04 09:55:55;;;;;;;31.48;3.83;;;29.20;70.00;;;;;;5016881;28;20029;-68
2022/10/04 09:58:24;;;;;;;17.92;3.25;;;29.20;69.90;;;;;;5020492;28;20025;-67
2022/10/04 10:00:54;;;;;;;13.45;2.78;;;29.10;70.00;;;;;;5017250;28;20112;-69
2022/10/04 10:03:31;;;;;;;19.60;3.47;;;29.10;70.30;;;;;;5022083;28;20045;-67
2022/10/04 10:06:25;;;;;;;24.45;4.25;;;29.10;70.00;;;;;;5023264;28;20339;-69
2022/10/04 10:09:04;;;;;;;17.00;3.75;;;29.10;69.50;;;;;;5022052;28;20022;-69
2022/10/04 10:15:38;;;;;;;28.67;3.80;;;28.90;69.90;;;;;;4982202;28;20518;-68
2022/10/04 10:18:30;;;;;;;28.55;4.13;;;28.90;69.30;;;;;;4971743;28;20508;-69
2022/10/04 10:21:41;;;;;;;31.85;4.40;;;28.90;70.10;;;;;;4977356;28;20033;-68
2022/10/04 10:24:25;;;;;;;33.45;4.38;;;28.70;68.90;;;;;;4904558;29;20027;-69
2022/10/04 10:27:22;;;;;;;48.08;5.50;;;28.70;70.30;;;;;;4985749;28;20065;-69
2022/10/04 10:30:10;;;;;;;46.87;5.13;;;28.60;70.10;;;;;;4976394;28;20505;-67
2022/10/04 10:33:14;;;;;;;40.50;5.13;;;28.50;69.90;;;;;;4980853;28;20327;-69
2022/10/04 10:36:05;;;;;;;39.95;5.05;;;28.50;69.30;;;;;;4984078;28;20034;-69
2022/10/04 10:38:49;;;;;;;36.35;5.68;;;28.50;69.20;;;;;;4979780;28;20031;-69
2022/10/04 10:41:55;;;;;;;41.58;5.28;;;28.50;69.80;;;;;;4974950;28;20042;-69
2022/10/04 10:44:28;;;;;;;35.65;5.20;;;28.40;68.20;;;;;;4976543;28;20038;-67
2022/10/04 10:47:10;;;;;;;45.42;5.47;;;28.50;68.10;;;;;;4978028;28;20030;-67
2022/10/04 10:49:58;;;;;;;57.47;5.63;;;28.30;68.50;;;;;;4978166;28;20039;-67
2022/10/04 10:53:11;;;;;;;43.85;4.35;;;28.20;68.80;;;;;;5022485;28;20061;-69
2022/10/04 10:55:38;;;;;;;58.63;5.38;;;28.20;67.70;;;;;;5015960;28;20471;-66
2022/10/04 10:58:42;;;;;;;40.58;4.50;;;28.10;67.60;;;;;;5018114;28;20487;-68
2022/10/04 11:01:29;;;;;;;65.32;5.93;;;28.20;67.60;;;;;;5021151;28;20026;-67
2022/10/04 11:04:13;;;;;;;66.10;6.57;;;28.00;67.00;;;;;;5023975;28;20018;-68
2022/10/04 11:07:17;;;;;;;41.72;5.35;;;28.10;67.50;;;;;;5024894;28;20033;-69
2022/10/04 11:10:29;;;;;;;39.85;5.43;;;28.10;68.60;;;;;;5023007;28;20022;-67
2022/10/04 11:13:25;;;;;;;40.05;5.10;;;28.10;68.00;;;;;;5023161;28;20029;-66
2022/10/04 11:16:30;;;;;;;34.45;5.03;;;28.10;67.10;;;;;;5021333;28;20041;-66
2022/10/04 11:19:05;;;;;;;40.05;4.88;;;28.10;67.20;;;;;;5023653;28;20034;-68
2022/10/04 11:22:01;;;;;;;49.73;5.97;;;28.00;67.00;;;;;;5022922;28;20467;-68
2022/10/04 11:24:46;;;;;;;53.90;5.40;;;28.10;66.70;;;;;;5025836;28;20387;-68
2022/10/04 11:27:43;;;;;;;48.08;4.40;;;28.10;65.80;;;;;;5025982;28;20041;-66
2022/10/04 11:30:33;;;;;;;69.90;5.93;;;28.10;64.90;;;;;;4970266;28;20073;-66
2022/10/04 11:33:23;;;;;;;46.85;4.45;;;28.10;64.00;;;;;;4969622;28;20436;-66
2022/10/04 11:36:04;;;;;;;50.17;5.05;;;28.10;63.80;;;;;;4970400;28;20097;-67
2022/10/04 11:38:50;;;;;;;54.03;5.03;;;28.20;63.70;;;;;;4970637;28;20051;-66
2022/10/04 11:41:44;;;;;;;33.07;4.13;;;28.10;63.40;;;;;;4967797;28;20114;-64
2022/10/04 11:44:28;;;;;;;58.22;5.82;;;28.10;63.40;;;;;;4970988;28;20384;-66
2022/10/04 11:47:20;;;;;;;40.95;4.65;;;28.00;63.30;;;;;;4970884;28;20042;-68
2022/10/04 11:50:19;;;;;;;47.05;4.97;;;28.00;63.10;;;;;;4971979;28;20570;-67
2022/10/04 11:53:07;;;;;;;58.17;6.00;;;28.00;62.60;;;;;;4969969;28;20034;-67
2022/10/04 11:55:46;;;;;;;51.25;5.22;;;28.00;63.00;;;;;;4970120;28;20092;-67
2022/10/04 11:58:31;;;;;;;44.38;6.55;;;28.10;62.50;;;;;;4969916;28;20253;-65
2022/10/04 12:01:31;;;;;;;46.13;4.45;;;28.10;62.50;;;;;;4970867;28;20038;-67
2022/10/04 12:04:21;;;;;;;48.80;4.70;;;28.10;63.00;;;;;;4969125;28;20493;-66
2022/10/04 12:06:54;;;;;;;41.35;4.72;;;28.10;62.50;;;;;;4990499;28;20044;-68
2022/10/04 12:09:38;;;;;;;35.55;3.85;;;28.20;62.60;;;;;;5023743;28;20072;-67
2022/10/04 12:12:38;;;;;;;49.47;5.30;;;28.10;62.80;;;;;;5017703;28;20392;-67
2022/10/04 12:15:22;;;;;;;87.10;6.30;;;28.10;63.40;;;;;;5020081;28;20030;-67
2022/10/04 12:18:11;;;;;;;53.88;5.60;;;28.10;63.30;;;;;;5021287;28;20428;-67
2022/10/04 12:20:51;;;;;;;33.17;4.88;;;28.10;63.40;;;;;;5015987;28;20087;-66
2022/10/04 12:23:52;;;;;;;34.70;4.57;;;28.10;63.20;;;;;;5021452;28;20433;-66
2022/10/04 12:26:40;;;;;;;49.00;4.55;;;28.00;63.70;;;;;;5023742;28;20041;-65
2022/10/04 12:29:44;;;;;;;45.42;4.25;;;28.00;63.70;;;;;;5021556;28;20375;-65
2022/10/04 12:32:18;;;;;;;27.10;3.58;;;28.00;64.10;;;;;;5026951;28;20457;-68
2022/10/04 12:35:13;;;;;;;35.47;4.88;;;27.90;63.60;;;;;;5018938;28;20479;-66
2022/10/04 12:38:07;;;;;;;30.38;3.55;;;27.90;63.90;;;;;;5022596;28;20119;-68
2022/10/04 12:40:46;;;;;;;45.28;4.97;;;28.00;64.60;;;;;;5018129;28;20071;-68
2022/10/04 12:43:29;;;;;;;38.15;4.78;;;28.00;64.50;;;;;;5025666;28;20028;-66
2022/10/04 12:46:05;;;;;;;47.17;5.18;;;27.90;64.60;;;;;;5021599;28;20018;-65
2022/10/04 12:48:56;;;;;;;42.50;5.00;;;27.90;64.30;;;;;;5023538;28;20096;-64
2022/10/04 12:51:50;;;;;;;46.80;6.15;;;27.90;64.20;;;;;;5020485;28;20395;-67
2022/10/04 12:54:37;;;;;;;46.35;6.38;;;27.80;64.70;;;;;;5021724;28;20474;-65
2022/10/04 12:57:41;;;;;;;55.35;7.22;;;27.70;64.80;;;;;;5026644;28;20026;-67
2022/10/04 13:00:15;;;;;;;62.22;6.63;;;27.70;65.20;;;;;;5024624;28;20107;-65
2022/10/04 13:03:03;;;;;;;65.47;10.48;;;27.60;65.50;;;;;;5025560;28;20558;-66
2022/10/04 13:05:42;;;;;;;92.45;14.65;;;27.60;66.20;;;;;;5023466;28;20021;-68
2022/10/04 13:08:36;;;;;;;84.88;13.73;;;27.50;66.10;;;;;;5023560;28;20041;-66
2022/10/04 13:11:42;;;;;;;71.32;12.20;;;27.40;66.50;;;;;;5023841;28;20712;-66
2022/10/04 13:14:40;;;;;;;79.75;12.55;;;27.40;67.20;;;;;;4999091;28;20107;-67
2022/10/04 13:17:24;;;;;;;71.93;12.13;;;27.40;67.50;;;;;;5021949;28;20041;-65
2022/10/04 13:20:14;;;;;;;89.55;13.50;;;27.40;67.80;;;;;;5020369;28;20021;-67
2022/10/04 13:22:55;;;;;;;73.07;15.32;;;27.40;67.90;;;;;;5018271;28;20103;-67
2022/10/04 13:25:58;;;;;;;70.35;14.82;;;27.40;68.50;;;;;;5020403;28;20026;-66
2022/10/04 13:28:41;;;;;;;84.95;15.27;;;27.30;69.10;;;;;;5025329;28;20494;-66
2022/10/04 13:31:23;;;;;;;75.53;14.57;;;27.30;69.30;;;;;;5024118;28;20040;-65
2022/10/04 13:34:02;;;;;;;73.55;13.32;;;27.30;69.60;;;;;;5022236;28;20022;-65
2022/10/04 13:36:50;;;;;;;72.43;13.95;;;27.20;69.90;;;;;;5020814;28;20030;-65
2022/10/04 13:39:48;;;;;;;77.93;14.32;;;27.10;70.60;;;;;;5022227;28;20132;-64
2022/10/04 13:42:27;;;;;;;77.47;13.95;;;27.10;70.70;;;;;;5021533;28;20057;-65
2022/10/04 13:45:25;;;;;;;90.20;13.65;;;27.00;70.60;;;;;;5018740;28;20068;-66
2022/10/04 13:48:18;;;;;;;82.35;13.70;;;26.90;70.80;;;;;;5016171;28;20051;-67
2022/10/04 13:50:47;;;;;;;79.88;14.70;;;26.90;71.40;;;;;;5022358;28;20038;-66
2022/10/04 13:56:56;;;;;;;87.43;13.80;;;26.80;71.90;;;;;;5021987;28;20040;-66
2022/10/04 13:59:40;;;;;;;75.38;14.05;;;26.80;72.00;;;;;;5019527;28;20029;-67
2022/10/04 14:02:21;;;;;;;82.40;12.93;;;26.80;72.50;;;;;;5019134;28;20482;-67
2022/10/04 14:05:15;;;;;;;81.18;10.07;;;26.80;72.50;;;;;;5019902;28;20068;-67
2022/10/04 14:08:08;;;;;;;68.13;10.38;;;26.80;72.20;;;;;;5021563;28;20025;-66
2022/10/04 14:11:15;;;;;;;90.50;10.60;;;26.80;71.80;;;;;;5019227;28;20050;-65